createdAt,value
2018-12-21T00:00:30.923Z,3.27
2018-12-21T00:02:59.131Z,3.00
2018-12-21T00:05:27.248Z,3.40
2018-12-21T00:07:55.688Z,3.10
2018-12-21T00:10:23.895Z,3.30
2018-12-21T00:12:52.032Z,3.40
2018-12-21T00:15:20.258Z,3.07
2018-12-21T00:17:48.588Z,2.47
2018-12-21T00:20:16.791Z,2.90
2018-12-21T00:22:44.977Z,2.63
2018-12-21T00:25:13.102Z,2.60
2018-12-21T00:27:41.374Z,3.33
2018-12-21T00:30:11.559Z,2.73
2018-12-21T00:32:45.077Z,2.47
2018-12-21T00:35:18.760Z,2.47
2018-12-21T00:37:52.564Z,2.90
2018-12-21T00:40:26.216Z,2.90
2018-12-21T00:42:59.769Z,2.47
2018-12-21T00:45:33.300Z,2.57
2018-12-21T00:48:01.610Z,3.13
2018-12-21T00:50:29.883Z,3.17
2018-12-21T00:52:58.084Z,2.80
2018-12-21T00:55:26.237Z,2.97
2018-12-21T00:57:55.518Z,2.83
2018-12-21T01:00:25.848Z,2.90
2018-12-21T01:02:54.075Z,2.67
2018-12-21T01:05:22.217Z,2.43
2018-12-21T01:07:50.648Z,2.40
2018-12-21T01:10:19.082Z,2.73
2018-12-21T01:12:47.343Z,2.63
2018-12-21T01:15:15.563Z,2.80
2018-12-21T01:17:43.830Z,2.93
2018-12-21T01:20:12.111Z,2.87
2018-12-21T01:22:40.243Z,2.83
2018-12-21T01:25:08.464Z,2.73
2018-12-21T01:27:36.751Z,2.43
2018-12-21T01:30:05.283Z,2.40
2018-12-21T01:32:33.465Z,2.90
2018-12-21T01:35:01.781Z,2.60
2018-12-21T01:37:30.296Z,2.47
2018-12-21T01:39:58.465Z,2.70
2018-12-21T01:42:26.665Z,2.30
2018-12-21T01:44:55.314Z,2.20
2018-12-21T01:47:23.690Z,2.60
2018-12-21T01:49:51.880Z,2.77
2018-12-21T01:52:20.024Z,1.93
2018-12-21T01:54:48.179Z,1.97
2018-12-21T01:57:16.591Z,2.40
2018-12-21T01:59:44.798Z,2.13
2018-12-21T02:02:13.108Z,2.17
2018-12-21T02:04:41.227Z,2.10
2018-12-21T02:07:09.659Z,2.00
2018-12-21T02:09:37.830Z,2.20
2018-12-21T02:12:06.189Z,2.57
2018-12-21T02:14:34.314Z,2.30
2018-12-21T02:17:02.594Z,2.50
2018-12-21T02:19:30.906Z,2.77
2018-12-21T02:21:59.073Z,2.03
2018-12-21T02:24:27.205Z,2.60
2018-12-21T02:26:55.645Z,2.10
2018-12-21T02:29:23.862Z,2.37
2018-12-21T02:31:53.005Z,2.17
2018-12-21T02:34:21.216Z,2.52
2018-12-21T02:36:49.375Z,2.15
2018-12-21T02:39:17.527Z,2.37
2018-12-21T02:41:45.664Z,2.23
2018-12-21T02:44:14.007Z,3.12
2018-12-21T02:46:42.119Z,2.23
2018-12-21T02:49:10.495Z,2.43
2018-12-21T02:51:38.713Z,2.53
2018-12-21T02:54:06.963Z,2.23
2018-12-21T02:56:35.235Z,2.97
2018-12-21T02:59:03.781Z,2.03
2018-12-21T03:01:31.996Z,2.37
2018-12-21T03:04:00.122Z,2.73
2018-12-21T03:06:28.271Z,2.33
2018-12-21T03:08:56.816Z,2.00
2018-12-21T03:11:25.001Z,2.40
2018-12-21T03:16:44.392Z,2.00
2018-12-21T03:19:12.550Z,2.57
2018-12-21T03:21:40.902Z,2.83
2018-12-21T03:24:09.096Z,2.20
2018-12-21T03:29:13.372Z,1.97
2018-12-21T03:31:41.537Z,2.40
2018-12-21T03:34:09.937Z,2.37
2018-12-21T03:36:38.173Z,2.20
2018-12-21T03:39:08.109Z,2.50
2018-12-21T03:41:37.387Z,2.58
2018-12-21T03:44:05.691Z,2.77
2018-12-21T03:46:34.030Z,2.50
2018-12-21T03:49:02.441Z,2.60
2018-12-21T03:51:30.554Z,3.10
2018-12-21T03:53:58.821Z,3.23
2018-12-21T03:56:27.047Z,2.70
2018-12-21T03:58:55.586Z,3.20
2018-12-21T04:01:23.708Z,2.90
2018-12-21T04:03:51.874Z,3.30
2018-12-21T04:06:20.011Z,2.43
2018-12-21T04:08:48.378Z,2.70
2018-12-21T04:11:16.537Z,3.40
2018-12-21T04:13:44.745Z,2.87
2018-12-21T04:16:12.877Z,3.53
2018-12-21T04:18:41.268Z,3.10
2018-12-21T04:21:09.501Z,2.83
2018-12-21T04:23:37.657Z,2.83
2018-12-21T04:26:05.974Z,3.07
2018-12-21T04:28:34.114Z,2.70
2018-12-21T04:31:02.315Z,2.77
2018-12-21T04:33:30.439Z,2.60
2018-12-21T04:35:58.593Z,2.75
2018-12-21T04:38:26.952Z,2.63
2018-12-21T04:40:55.085Z,2.63
2018-12-21T04:43:23.268Z,3.00
2018-12-21T04:45:51.627Z,2.43
2018-12-21T04:48:20.039Z,2.53
2018-12-21T04:50:48.183Z,2.83
2018-12-21T04:53:22.968Z,2.33
2018-12-21T04:55:51.336Z,2.40
2018-12-21T04:58:19.628Z,2.00
2018-12-21T05:00:47.843Z,1.80
2018-12-21T05:03:16.071Z,1.80
2018-12-21T05:05:44.322Z,1.83
2018-12-21T05:08:12.528Z,1.70
2018-12-21T05:10:40.978Z,2.00
2018-12-21T05:13:09.133Z,1.73
2018-12-21T05:15:37.324Z,1.60
2018-12-21T05:18:05.723Z,1.40
2018-12-21T05:20:33.928Z,1.40
2018-12-21T05:23:02.148Z,1.40
2018-12-21T05:25:30.291Z,1.40
2018-12-21T05:27:58.471Z,1.37
2018-12-21T05:30:26.661Z,1.17
2018-12-21T05:32:54.873Z,1.27
2018-12-21T05:35:23.148Z,1.00
2018-12-21T05:37:51.406Z,1.23
2018-12-21T05:40:19.708Z,1.37
2018-12-21T05:42:48.191Z,1.32
2018-12-21T05:45:16.380Z,1.30
2018-12-21T05:47:44.813Z,1.35
2018-12-21T05:50:13.125Z,1.40
2018-12-21T05:52:41.398Z,1.70
2018-12-21T05:55:09.591Z,1.43
2018-12-21T05:57:38.658Z,1.50
2018-12-21T06:00:08.568Z,1.40
2018-12-21T06:02:36.732Z,1.47
2018-12-21T06:05:05.263Z,1.33
2018-12-21T06:07:33.956Z,1.53
2018-12-21T06:10:02.336Z,1.40
2018-12-21T06:12:30.646Z,1.73
2018-12-21T06:14:58.767Z,1.70
2018-12-21T06:17:27.120Z,2.03
2018-12-21T06:19:55.266Z,2.00
2018-12-21T06:22:23.411Z,1.87
2018-12-21T06:24:51.536Z,2.27
2018-12-21T06:27:19.774Z,1.80
2018-12-21T06:29:47.996Z,1.80
2018-12-21T06:32:16.310Z,1.60
2018-12-21T06:34:44.441Z,1.63
2018-12-21T06:37:12.904Z,1.60
2018-12-21T06:39:41.192Z,1.83
2018-12-21T06:42:09.346Z,1.53
2018-12-21T06:44:37.477Z,1.50
2018-12-21T06:47:05.880Z,1.50
2018-12-21T06:49:34.552Z,1.50
2018-12-21T06:52:05.219Z,1.50
2018-12-21T06:54:33.464Z,1.70
2018-12-21T06:57:01.775Z,2.00
2018-12-21T06:59:29.940Z,1.33
2018-12-21T07:01:58.067Z,1.40
2018-12-21T07:04:27.446Z,1.53
2018-12-21T07:06:55.643Z,1.60
2018-12-21T07:09:30.992Z,1.20
2018-12-21T07:11:59.169Z,1.30
2018-12-21T07:14:28.310Z,1.60
2018-12-21T07:16:56.572Z,1.50
2018-12-21T07:19:25.393Z,1.33
2018-12-21T07:21:53.569Z,1.70
2018-12-21T07:24:21.834Z,1.80
2018-12-21T07:26:50.042Z,2.00
2018-12-21T07:29:20.743Z,2.03
2018-12-21T07:31:50.021Z,2.00
2018-12-21T07:34:18.170Z,2.00
2018-12-21T07:36:46.577Z,2.00
2018-12-21T07:39:14.820Z,2.20
2018-12-21T07:41:43.211Z,2.50
2018-12-21T07:44:11.367Z,2.23
2018-12-21T07:46:39.541Z,2.70
2018-12-21T07:49:07.905Z,3.07
2018-12-21T07:51:36.143Z,3.12
2018-12-21T07:54:04.360Z,2.90
2018-12-21T07:56:32.745Z,3.20
2018-12-21T07:59:01.026Z,3.30
2018-12-21T08:01:29.343Z,3.10
2018-12-21T08:03:57.575Z,3.40
2018-12-21T08:06:25.831Z,3.53
2018-12-21T08:08:54.061Z,3.67
2018-12-21T08:11:22.326Z,3.53
2018-12-21T08:13:50.650Z,4.20
2018-12-21T08:16:18.876Z,3.67
2018-12-21T08:18:47.110Z,3.80
2018-12-21T08:21:15.309Z,4.07
2018-12-21T08:23:44.421Z,4.60
2018-12-21T08:26:13.007Z,4.43
2018-12-21T08:28:41.273Z,4.50
2018-12-21T08:31:11.238Z,4.00
2018-12-21T08:33:40.692Z,4.90
2018-12-21T08:36:08.901Z,4.10
2018-12-21T08:38:37.130Z,4.13
2018-12-21T08:41:05.242Z,3.50
2018-12-21T08:43:33.401Z,3.80
2018-12-21T08:46:01.596Z,3.33
2018-12-21T08:48:29.960Z,3.60
2018-12-21T08:50:58.132Z,3.83
2018-12-21T08:53:26.268Z,3.77
2018-12-21T08:55:54.526Z,3.76
2018-12-21T08:58:22.809Z,3.40
2018-12-21T09:00:51.090Z,3.63
2018-12-21T09:03:19.243Z,3.43
2018-12-21T09:05:47.791Z,3.17
2018-12-21T09:08:16.337Z,3.17
2018-12-21T09:10:44.515Z,3.73
2018-12-21T09:13:13.039Z,2.80
2018-12-21T09:15:41.179Z,3.20
2018-12-21T09:18:09.522Z,2.97
2018-12-21T09:20:37.883Z,3.20
2018-12-21T09:23:06.092Z,2.90
2018-12-21T09:25:34.265Z,2.43
2018-12-21T09:28:02.617Z,2.70
2018-12-21T09:30:30.928Z,2.30
2018-12-21T09:32:59.080Z,2.40
2018-12-21T09:35:27.317Z,2.20
2018-12-21T09:37:55.639Z,2.20
2018-12-21T09:40:24.064Z,2.00
2018-12-21T09:45:26.658Z,2.10
2018-12-21T09:47:55.106Z,1.80
2018-12-21T09:50:23.361Z,1.40
2018-12-21T09:52:51.501Z,1.40
2018-12-21T09:55:19.727Z,1.10
2018-12-21T09:57:48.065Z,0.80
2018-12-21T10:00:16.324Z,0.93
2018-12-21T10:02:44.500Z,0.60
2018-12-21T10:05:15.117Z,0.70
2018-12-21T10:07:43.408Z,0.83
2018-12-21T10:10:11.721Z,0.57
2018-12-21T10:12:40.197Z,0.60
2018-12-21T10:15:09.548Z,0.50
2018-12-21T10:17:37.934Z,0.67
2018-12-21T10:20:08.156Z,0.70
2018-12-21T10:22:36.283Z,0.80
2018-12-21T10:25:05.527Z,0.73
2018-12-21T10:27:33.850Z,1.00
2018-12-21T10:30:02.018Z,1.00
2018-12-21T10:32:30.244Z,1.10
2018-12-21T10:34:58.378Z,1.27
2018-12-21T10:37:26.816Z,1.10
2018-12-21T10:39:54.972Z,1.50
2018-12-21T10:42:23.100Z,1.43
2018-12-21T10:44:51.349Z,1.40
2018-12-21T10:47:19.663Z,1.50
2018-12-21T10:49:47.843Z,1.90
2018-12-21T10:52:16.082Z,1.50
2018-12-21T10:54:44.901Z,1.40
2018-12-21T10:57:13.418Z,1.30
2018-12-21T10:59:43.576Z,1.37
2018-12-21T11:02:12.523Z,1.60
2018-12-21T11:04:40.722Z,1.70
2018-12-21T11:07:09.215Z,1.50
2018-12-21T11:09:37.356Z,1.50
2018-12-21T11:12:05.657Z,1.73
2018-12-21T11:14:33.794Z,1.37
2018-12-21T11:17:04.984Z,1.53
2018-12-21T11:19:33.132Z,1.43
2018-12-21T11:22:01.290Z,2.00
2018-12-21T11:24:35.327Z,1.50
2018-12-21T11:26:59.883Z,1.40
2018-12-21T11:29:28.069Z,1.80
2018-12-21T11:31:56.294Z,1.90
2018-12-21T11:34:24.521Z,1.83
2018-12-21T11:36:52.654Z,1.63
2018-12-21T11:39:20.886Z,1.70
2018-12-21T11:41:49.030Z,2.27
2018-12-21T11:44:17.344Z,1.85
2018-12-21T11:46:45.895Z,1.97
2018-12-21T11:49:14.103Z,1.97
2018-12-21T11:51:42.259Z,1.83
2018-12-21T11:54:10.396Z,1.90
2018-12-21T11:56:38.563Z,2.30
2018-12-21T11:59:07.359Z,2.37
2018-12-21T12:01:35.529Z,2.37
2018-12-21T12:04:03.755Z,1.70
2018-12-21T12:06:31.917Z,2.13
2018-12-21T12:09:06.114Z,2.20
2018-12-21T12:11:30.227Z,2.40
2018-12-21T12:13:58.489Z,2.40
2018-12-21T12:16:26.722Z,2.72
2018-12-21T12:21:35.420Z,2.33
2018-12-21T12:24:03.648Z,2.23
2018-12-21T12:26:31.871Z,1.87
2018-12-21T12:29:00.066Z,2.17
2018-12-21T12:31:32.211Z,2.20
2018-12-21T12:34:01.445Z,1.73
2018-12-21T12:36:29.736Z,2.60
2018-12-21T12:38:58.074Z,2.17
2018-12-21T12:41:26.353Z,2.20
2018-12-21T12:43:54.804Z,2.47
2018-12-21T12:46:22.957Z,2.60
2018-12-21T12:48:51.916Z,2.50
2018-12-21T12:51:20.237Z,2.20
2018-12-21T12:53:48.541Z,2.77
2018-12-21T12:56:16.756Z,2.25
2018-12-21T12:58:45.063Z,2.40
2018-12-21T13:01:13.213Z,2.40
2018-12-21T13:03:41.515Z,2.50
2018-12-21T13:06:09.764Z,2.35
2018-12-21T13:08:39.020Z,1.97
2018-12-21T13:11:07.345Z,2.60
2018-12-21T13:13:35.602Z,2.17
2018-12-21T13:16:03.870Z,2.80
2018-12-21T13:18:32.188Z,2.33
2018-12-21T13:21:00.386Z,2.17
2018-12-21T13:23:31.416Z,2.20
2018-12-21T13:26:02.505Z,1.83
2018-12-21T13:28:30.825Z,2.83
2018-12-21T13:30:58.946Z,2.70
2018-12-21T13:33:27.100Z,2.43
2018-12-21T13:35:55.304Z,2.50
2018-12-21T13:38:23.647Z,2.50
2018-12-21T13:40:51.851Z,2.30
2018-12-21T13:43:19.982Z,3.10
2018-12-21T13:45:48.196Z,2.57
2018-12-21T13:48:16.622Z,2.17
2018-12-21T13:50:44.837Z,2.27
2018-12-21T13:53:13.151Z,2.47
2018-12-21T13:55:41.344Z,2.40
2018-12-21T13:58:09.743Z,3.73
2018-12-21T14:00:46.627Z,2.33
2018-12-21T14:03:14.836Z,2.93
2018-12-21T14:05:55.343Z,2.46
2018-12-21T14:08:23.558Z,3.30
2018-12-21T14:10:51.702Z,3.13
2018-12-21T14:13:19.956Z,3.07
2018-12-21T14:15:48.776Z,2.87
2018-12-21T14:18:17.032Z,3.55
2018-12-21T14:20:45.167Z,3.87
2018-12-21T14:23:13.294Z,4.10
2018-12-21T14:25:42.478Z,3.67
2018-12-21T14:28:12.857Z,4.50
2018-12-21T14:30:41.498Z,4.40
2018-12-21T14:33:09.732Z,4.43
2018-12-21T14:35:37.900Z,5.10
2018-12-21T14:38:13.838Z,4.80
2018-12-21T14:40:42.016Z,4.87
2018-12-21T14:43:10.199Z,4.67
2018-12-21T14:45:38.362Z,4.87
2018-12-21T14:48:06.832Z,5.43
2018-12-21T14:50:37.138Z,5.40
2018-12-21T14:53:15.097Z,4.98
2018-12-21T14:58:30.442Z,5.70
2018-12-21T15:00:58.724Z,4.67
2018-12-21T15:03:26.868Z,5.77
2018-12-21T15:05:55.494Z,5.13
2018-12-21T15:08:23.670Z,5.47
2018-12-21T15:10:52.245Z,4.70
2018-12-21T15:13:20.459Z,5.70
2018-12-21T15:15:48.993Z,5.27
2018-12-21T15:18:17.774Z,5.57
2018-12-21T15:20:46.009Z,5.37
2018-12-21T15:23:14.228Z,5.37
2018-12-21T15:25:46.078Z,5.75
2018-12-21T15:28:12.661Z,5.97
2018-12-21T15:30:40.960Z,5.67
2018-12-21T15:33:09.214Z,5.80
2018-12-21T15:35:37.584Z,5.73
2018-12-21T15:38:06.740Z,5.67
2018-12-21T15:40:36.108Z,5.97
2018-12-21T15:43:05.255Z,5.53
2018-12-21T15:45:33.585Z,5.90
2018-12-21T15:48:01.986Z,6.80
2018-12-21T15:50:30.697Z,5.77
2018-12-21T15:52:58.839Z,5.80
2018-12-21T15:55:26.991Z,5.90
2018-12-21T15:57:55.888Z,7.25
2018-12-21T16:00:24.969Z,6.07
2018-12-21T16:02:55.429Z,7.50
2018-12-21T16:05:23.672Z,6.50
2018-12-21T16:07:51.853Z,5.20
2018-12-21T16:10:20.464Z,5.77
2018-12-21T16:12:48.952Z,6.50
2018-12-21T16:15:19.010Z,5.97
2018-12-21T16:17:47.265Z,6.23
2018-12-21T16:20:15.977Z,6.20
2018-12-21T16:22:44.186Z,6.03
2018-12-21T16:25:12.394Z,5.27
2018-12-21T16:27:40.777Z,5.80
2018-12-21T16:30:11.382Z,4.67
2018-12-21T16:32:39.726Z,4.73
2018-12-21T16:35:08.093Z,5.00
2018-12-21T16:37:37.248Z,5.00
2018-12-21T16:40:10.912Z,4.93
2018-12-21T16:42:39.319Z,4.80
2018-12-21T16:45:09.669Z,5.43
2018-12-21T16:47:38.077Z,4.57
2018-12-21T16:50:10.111Z,4.83
2018-12-21T16:52:38.358Z,6.00
2018-12-21T16:55:06.958Z,4.60
2018-12-21T16:57:35.567Z,5.47
2018-12-21T17:00:05.820Z,4.80
2018-12-21T17:02:34.253Z,4.73
2018-12-21T17:05:02.473Z,4.43
2018-12-21T17:07:30.809Z,4.90
2018-12-21T17:09:58.954Z,4.57
2018-12-21T17:12:27.517Z,5.27
2018-12-21T17:17:39.496Z,4.93
2018-12-21T17:20:09.022Z,5.53
2018-12-21T17:22:37.280Z,5.23
2018-12-21T17:25:07.907Z,5.50
2018-12-21T17:27:36.529Z,6.50
2018-12-21T17:30:06.399Z,6.10
2018-12-21T17:32:34.835Z,5.73
2018-12-21T17:35:03.056Z,6.00
2018-12-21T17:37:32.482Z,5.90
2018-12-21T17:40:01.472Z,6.73
2018-12-21T17:42:29.699Z,5.43
2018-12-21T17:44:57.907Z,4.78
2018-12-21T17:47:26.267Z,4.67
2018-12-21T17:49:54.420Z,3.90
2018-12-21T17:52:22.573Z,3.20
2018-12-21T17:54:50.704Z,3.10
2018-12-21T17:57:18.976Z,2.67
2018-12-21T17:59:47.122Z,3.30
2018-12-21T18:02:15.364Z,2.53
2018-12-21T18:04:43.550Z,2.47
2018-12-21T18:07:12.003Z,2.00
2018-12-21T18:09:40.156Z,2.10
2018-12-21T18:12:09.021Z,1.90
2018-12-21T18:14:37.222Z,2.00
2018-12-21T18:17:06.231Z,1.73
2018-12-21T18:19:34.467Z,2.00
2018-12-21T18:22:19.845Z,1.70
2018-12-21T18:25:22.803Z,1.83
2018-12-21T18:27:53.046Z,1.70
2018-12-21T18:30:31.632Z,1.50
2018-12-21T18:33:10.295Z,1.53
2018-12-21T18:35:32.722Z,1.37
2018-12-21T18:38:03.836Z,2.30
2018-12-21T18:40:32.817Z,2.10
2018-12-21T18:43:01.204Z,2.25
2018-12-21T18:45:31.867Z,2.00
2018-12-21T18:48:07.126Z,1.57
2018-12-21T18:50:47.544Z,1.93
2018-12-21T18:53:17.963Z,2.03
2018-12-21T18:55:48.507Z,2.10
2018-12-21T18:58:19.478Z,2.00
2018-12-21T19:00:47.605Z,2.07
2018-12-21T19:03:25.654Z,2.00
2018-12-21T19:05:56.692Z,1.73
2018-12-21T19:08:25.009Z,2.70
2018-12-21T19:10:53.146Z,2.07
2018-12-21T19:13:21.302Z,1.83
2018-12-21T19:15:49.602Z,1.70
2018-12-21T19:18:17.880Z,2.03
2018-12-21T19:20:46.097Z,2.07
2018-12-21T19:23:14.310Z,2.12
2018-12-21T19:25:42.556Z,3.60
2018-12-21T19:28:10.982Z,1.90
2018-12-21T19:30:39.179Z,2.43
2018-12-21T19:33:09.072Z,1.80
2018-12-21T19:35:37.373Z,2.20
2018-12-21T19:38:06.460Z,2.60
2018-12-21T19:40:34.688Z,2.33
2018-12-21T19:43:02.904Z,2.10
2018-12-21T19:45:31.102Z,2.20
2018-12-21T19:47:59.448Z,3.13
2018-12-21T19:50:27.923Z,2.20
2018-12-21T19:52:56.219Z,2.00
2018-12-21T19:55:53.456Z,1.90
2018-12-21T19:58:21.826Z,1.80
2018-12-21T20:00:50.061Z,1.60
2018-12-21T20:03:18.193Z,2.20
2018-12-21T20:05:46.400Z,2.20
2018-12-21T20:08:14.770Z,1.73
2018-12-21T20:10:42.922Z,2.10
2018-12-21T20:13:11.097Z,1.57
2018-12-21T20:15:39.273Z,1.00
2018-12-21T20:18:07.601Z,0.67
2018-12-21T20:20:38.954Z,0.80
2018-12-21T20:23:07.150Z,0.82
2018-12-21T20:25:35.651Z,0.70
2018-12-21T20:28:04.047Z,0.80
2018-12-21T20:30:32.441Z,0.63
2018-12-21T20:33:01.445Z,0.77
2018-12-21T20:35:29.845Z,0.43
2018-12-21T20:37:58.335Z,0.60
2018-12-21T20:40:26.526Z,0.70
2018-12-21T20:42:54.829Z,0.63
2018-12-21T20:45:23.051Z,0.77
2018-12-21T20:47:52.137Z,0.72
2018-12-21T20:50:20.283Z,1.10
2018-12-21T20:52:48.469Z,1.47
2018-12-21T20:55:16.659Z,1.13
2018-12-21T20:57:47.840Z,1.47
2018-12-21T21:00:16.475Z,1.67
2018-12-21T21:02:44.695Z,1.57
2018-12-21T21:05:12.978Z,0.93
2018-12-21T21:07:41.547Z,0.80
2018-12-21T21:10:11.761Z,0.87
2018-12-21T21:12:40.473Z,0.93
2018-12-21T21:15:10.642Z,1.00
2018-12-21T21:17:42.614Z,0.70
2018-12-21T21:20:13.711Z,1.05
2018-12-21T21:22:42.067Z,1.30
2018-12-21T21:25:10.977Z,1.13
2018-12-21T21:27:40.855Z,1.40
2018-12-21T21:30:15.255Z,0.90
2018-12-21T21:32:44.277Z,0.90
2018-12-21T21:35:14.339Z,0.93
2018-12-21T21:37:42.590Z,0.70
2018-12-21T21:40:15.135Z,0.97
2018-12-21T21:42:45.612Z,1.37
2018-12-21T21:45:13.957Z,1.07
2018-12-21T21:47:42.957Z,1.10
2018-12-21T21:50:11.274Z,1.27
2018-12-21T21:52:40.348Z,1.30
2018-12-21T21:55:10.101Z,1.10
2018-12-21T21:57:39.643Z,1.00
2018-12-21T22:00:11.962Z,0.60
2018-12-21T22:02:41.281Z,1.00
2018-12-21T22:05:09.426Z,1.10
2018-12-21T22:07:37.983Z,1.33
2018-12-21T22:12:56.755Z,1.10
2018-12-21T22:15:24.896Z,1.20
2018-12-21T22:17:55.829Z,1.00
2018-12-21T22:20:24.520Z,1.13
2018-12-21T22:22:54.415Z,1.20
2018-12-21T22:25:23.885Z,1.20
2018-12-21T22:27:53.317Z,1.52
2018-12-21T22:30:21.542Z,1.32
2018-12-21T22:32:51.288Z,1.60
2018-12-21T22:35:20.323Z,1.43
2018-12-21T22:37:49.678Z,1.60
2018-12-21T22:40:19.645Z,1.50
2018-12-21T22:42:49.271Z,1.37
2018-12-21T22:45:17.410Z,1.80
2018-12-21T22:47:46.022Z,1.90
2018-12-21T22:50:14.307Z,1.62
2018-12-21T22:52:42.451Z,1.77
2018-12-21T22:55:10.641Z,2.20
2018-12-21T22:57:39.138Z,2.00
2018-12-21T23:00:15.904Z,1.90
2018-12-21T23:02:44.169Z,1.90
2018-12-21T23:05:12.546Z,2.40
2018-12-21T23:07:40.759Z,2.00
2018-12-21T23:10:08.995Z,2.10
2018-12-21T23:12:37.219Z,1.93
2018-12-21T23:15:05.578Z,2.03
2018-12-21T23:17:37.728Z,1.80
2018-12-21T23:20:06.493Z,2.33
2018-12-21T23:22:34.792Z,2.20
2018-12-21T23:25:03.206Z,2.40
2018-12-21T23:27:31.590Z,2.80
2018-12-21T23:29:59.737Z,2.10
2018-12-21T23:32:27.889Z,2.30
2018-12-21T23:34:56.027Z,2.77
2018-12-21T23:37:24.287Z,2.30
2018-12-21T23:39:52.434Z,2.57
2018-12-21T23:42:20.547Z,2.63
2018-12-21T23:44:48.857Z,2.93
2018-12-21T23:47:17.218Z,2.50
2018-12-21T23:49:45.542Z,2.80
2018-12-21T23:52:13.676Z,2.90
2018-12-21T23:54:41.795Z,2.43
2018-12-21T23:57:10.052Z,2.83
2018-12-21T23:59:38.478Z,2.60
